Marienthal, Kansas
Current Conditions -  °F | °C
As of 8:15 AM on Monday 22 Dec 2014 (Local Time) from K3K3 Reporting Station
Clear Clear  
Wind Chill: 29°   Ceiling: Unl
Heat Index: 37°   Visibility: 10mi
Dew Point: 32°   Wind: 15mph
Humidity: 81%   Direction: 300°WNW
Pressure: 29.73"   Gusts: 20mph
Location:  38.49°N, 101.21°W
Report Text: K3K3 221415Z AUTO 30013G17KT 10SM CLR 03/00 A2973 RMK AO2
Loading
Personal Weather Stations






























Interactive Weather Map New forecast layout! Learn more

10-Day Weather Forecast

Advertisements
Track Severe Weather on mobile